createdAt,value
2019-04-07T00:00:47.659Z,32.50
2019-04-07T00:01:47.787Z,33.40
2019-04-07T00:02:47.571Z,31.10
2019-04-07T00:03:47.300Z,31.60
2019-04-07T00:04:47.673Z,33.10
2019-04-07T00:05:47.280Z,30.80
2019-04-07T00:06:47.687Z,29.70
2019-04-07T00:07:47.287Z,29.00
2019-04-07T00:08:47.525Z,27.80
2019-04-07T00:09:47.226Z,28.10
2019-04-07T00:10:47.212Z,29.60
2019-04-07T00:11:47.203Z,28.30
2019-04-07T00:12:47.652Z,28.80
2019-04-07T00:13:47.175Z,31.50
2019-04-07T00:14:47.164Z,27.40
2019-04-07T00:15:47.151Z,31.10
2019-04-07T00:16:47.139Z,31.00
2019-04-07T00:17:47.700Z,31.10
2019-04-07T00:18:47.113Z,31.80
2019-04-07T00:19:47.100Z,32.20
2019-04-07T00:20:47.362Z,30.50
2019-04-07T00:21:47.076Z,31.40
2019-04-07T00:22:47.092Z,29.90
2019-04-07T00:23:47.049Z,30.70
2019-04-07T00:24:47.039Z,29.50
2019-04-07T00:25:47.028Z,29.50
2019-04-07T00:26:47.486Z,33.90
2019-04-07T00:27:47.002Z,30.40
2019-04-07T00:28:46.989Z,33.10
2019-04-07T00:29:46.997Z,29.30
2019-04-07T00:30:46.965Z,31.50
2019-04-07T00:31:46.951Z,32.60
2019-04-07T00:32:46.940Z,28.70
2019-04-07T00:33:47.302Z,30.40
2019-04-07T00:34:46.914Z,28.60
2019-04-07T00:35:46.915Z,28.80
2019-04-07T00:36:46.892Z,29.40
2019-04-07T00:37:46.878Z,31.70
2019-04-07T00:38:47.070Z,29.20
2019-04-07T00:39:46.901Z,30.50
2019-04-07T00:40:46.839Z,31.50
2019-04-07T00:41:47.488Z,30.70
2019-04-07T00:42:46.817Z,30.00
2019-04-07T00:43:47.173Z,29.70
2019-04-07T00:44:46.789Z,31.60
2019-04-07T00:45:47.021Z,30.80
2019-04-07T00:46:46.765Z,28.30
2019-04-07T00:47:46.752Z,30.50
2019-04-07T00:48:47.461Z,30.40
2019-04-07T00:49:46.728Z,27.50
2019-04-07T00:50:46.981Z,31.00
2019-04-07T00:51:46.714Z,31.60
2019-04-07T00:52:46.690Z,31.50
2019-04-07T00:53:46.679Z,32.70
2019-04-07T00:54:46.983Z,30.70
2019-04-07T00:55:46.653Z,29.50
2019-04-07T00:56:46.639Z,29.60
2019-04-07T00:57:47.115Z,30.30
2019-04-07T00:58:47.304Z,31.50
2019-04-07T00:59:47.300Z,32.90
2019-04-07T01:00:46.589Z,30.00
2019-04-07T01:01:47.181Z,32.60
2019-04-07T01:02:46.627Z,30.80
2019-04-07T01:03:46.550Z,30.40
2019-04-07T01:04:47.188Z,29.20
2019-04-07T01:05:46.769Z,31.20
2019-04-07T01:06:47.201Z,32.50
2019-04-07T01:07:46.503Z,28.90
2019-04-07T01:08:46.487Z,30.70
2019-04-07T01:09:46.476Z,31.00
2019-04-07T01:10:47.007Z,31.90
2019-04-07T01:11:46.449Z,31.70
2019-04-07T01:12:46.440Z,34.00
2019-04-07T01:13:46.440Z,34.00
2019-04-07T01:14:46.701Z,32.30
2019-04-07T01:15:46.398Z,31.80
2019-04-07T01:16:47.142Z,32.40
2019-04-07T01:17:46.565Z,32.40
2019-04-07T01:18:46.858Z,32.00
2019-04-07T01:19:46.349Z,34.20
2019-04-07T01:20:46.851Z,34.60
2019-04-07T01:21:46.886Z,29.30
2019-04-07T01:22:46.312Z,32.40
2019-04-07T01:23:46.869Z,33.00
2019-04-07T01:24:46.285Z,32.70
2019-04-07T01:25:46.645Z,33.00
2019-04-07T01:26:46.265Z,32.60
2019-04-07T01:27:46.643Z,34.30
2019-04-07T01:28:46.237Z,31.40
2019-04-07T01:29:46.374Z,30.20
2019-04-07T01:30:46.770Z,32.40
2019-04-07T01:31:46.200Z,32.00
2019-04-07T01:32:46.731Z,32.40
2019-04-07T01:33:46.850Z,28.60
2019-04-07T01:34:46.867Z,32.40
2019-04-07T01:35:48.697Z,31.40
2019-04-07T01:36:46.137Z,31.40
2019-04-07T01:37:46.124Z,29.40
2019-04-07T01:38:46.124Z,30.00
2019-04-07T01:39:46.098Z,33.70
2019-04-07T01:40:46.645Z,32.30
2019-04-07T01:41:46.229Z,30.80
2019-04-07T01:42:46.059Z,29.20
2019-04-07T01:43:46.049Z,28.30
2019-04-07T01:44:46.145Z,32.60
2019-04-07T01:45:46.563Z,31.60
2019-04-07T01:46:46.012Z,33.90
2019-04-07T01:47:45.997Z,30.00
2019-04-07T01:48:45.984Z,30.00
2019-04-07T01:49:46.595Z,31.80
2019-04-07T01:50:46.662Z,31.70
2019-04-07T01:51:46.492Z,32.70
2019-04-07T01:52:45.938Z,31.00
2019-04-07T01:53:46.584Z,28.80
2019-04-07T01:54:45.915Z,30.50
2019-04-07T01:55:46.384Z,32.80
2019-04-07T01:56:46.491Z,32.20
2019-04-07T01:57:46.507Z,34.90
2019-04-07T01:58:46.028Z,33.90
2019-04-07T01:59:45.847Z,33.70
2019-04-07T02:00:45.835Z,33.70
2019-04-07T02:01:45.947Z,34.40
2019-04-07T02:02:45.819Z,31.60
2019-04-07T02:03:46.285Z,29.50
2019-04-07T02:04:45.788Z,29.20
2019-04-07T02:05:57.670Z,31.40
2019-04-07T02:06:46.357Z,34.20
2019-04-07T02:07:45.804Z,31.30
2019-04-07T02:08:46.372Z,30.20
2019-04-07T02:09:45.725Z,28.80
2019-04-07T02:10:46.014Z,31.50
2019-04-07T02:11:46.266Z,29.40
2019-04-07T02:12:45.687Z,32.80
2019-04-07T02:13:45.677Z,29.90
2019-04-07T02:14:45.663Z,32.40
2019-04-07T02:15:45.650Z,31.60
2019-04-07T02:16:45.644Z,31.00
2019-04-07T02:17:45.632Z,34.70
2019-04-07T02:18:45.617Z,30.40
2019-04-07T02:19:46.015Z,30.70
2019-04-07T02:20:45.591Z,31.60
2019-04-07T02:21:45.574Z,34.60
2019-04-07T02:22:45.565Z,32.00
2019-04-07T02:23:45.551Z,31.80
2019-04-07T02:24:45.542Z,32.70
2019-04-07T02:25:45.536Z,32.70
2019-04-07T02:26:45.594Z,29.60
2019-04-07T02:27:45.886Z,31.60
2019-04-07T02:28:46.205Z,31.70
2019-04-07T02:29:45.479Z,34.30
2019-04-07T02:30:45.960Z,32.60
2019-04-07T02:31:46.234Z,32.70
2019-04-07T02:32:46.183Z,32.50
2019-04-07T02:33:45.763Z,32.40
2019-04-07T02:34:45.569Z,33.30
2019-04-07T02:35:46.541Z,32.30
2019-04-07T02:36:46.534Z,32.50
2019-04-07T02:37:46.001Z,30.20
2019-04-07T02:38:45.648Z,31.50
2019-04-07T02:39:46.332Z,30.70
2019-04-07T02:40:45.947Z,30.00
2019-04-07T02:41:46.501Z,32.10
2019-04-07T02:42:46.140Z,34.50
2019-04-07T02:43:45.302Z,33.40
2019-04-07T02:44:45.519Z,33.80
2019-04-07T02:45:45.325Z,30.00
2019-04-07T02:46:46.247Z,29.80
2019-04-07T02:47:45.253Z,32.30
2019-04-07T02:48:45.239Z,30.60
2019-04-07T02:49:45.725Z,31.70
2019-04-07T02:50:45.341Z,29.20
2019-04-07T02:51:45.512Z,29.80
2019-04-07T02:52:45.334Z,30.00
2019-04-07T02:53:45.462Z,29.50
2019-04-07T02:54:46.317Z,30.40
2019-04-07T02:55:45.333Z,27.70
2019-04-07T02:56:46.131Z,30.20
2019-04-07T02:57:45.133Z,30.50
2019-04-07T02:58:45.117Z,28.50
2019-04-07T02:59:46.259Z,26.70
2019-04-07T03:00:45.102Z,30.20
2019-04-07T03:01:45.428Z,28.40
2019-04-07T03:02:45.661Z,29.20
2019-04-07T03:03:46.360Z,31.50
2019-04-07T03:04:46.004Z,28.50
2019-04-07T03:05:45.576Z,27.60
2019-04-07T03:06:50.017Z,29.60
2019-04-07T03:07:45.008Z,28.80
2019-04-07T03:08:45.346Z,29.20
2019-04-07T03:09:44.985Z,27.90
2019-04-07T03:10:44.970Z,30.10
2019-04-07T03:11:44.955Z,28.90
2019-04-07T03:12:45.427Z,27.60
2019-04-07T03:13:45.208Z,29.60
2019-04-07T03:14:45.630Z,31.60
2019-04-07T03:15:44.911Z,29.40
2019-04-07T03:16:44.893Z,34.00
2019-04-07T03:17:45.810Z,29.70
2019-04-07T03:18:44.873Z,27.70
2019-04-07T03:19:45.290Z,29.50
2019-04-07T03:20:45.476Z,26.50
2019-04-07T03:21:45.752Z,26.30
2019-04-07T03:22:44.821Z,26.70
2019-04-07T03:23:45.695Z,24.60
2019-04-07T03:24:44.796Z,23.80
2019-04-07T03:25:45.194Z,22.80
2019-04-07T03:26:44.790Z,24.60
2019-04-07T03:27:44.755Z,26.10
2019-04-07T03:28:44.747Z,25.90
2019-04-07T03:29:45.278Z,28.10
2019-04-07T03:30:45.391Z,27.60
2019-04-07T03:31:46.490Z,26.90
2019-04-07T03:32:46.773Z,27.90
2019-04-07T03:33:48.200Z,26.60
2019-04-07T03:34:45.406Z,23.30
2019-04-07T03:35:46.097Z,22.70
2019-04-07T03:37:12.664Z,18.60
2019-04-07T03:37:47.432Z,20.20
2019-04-07T03:38:44.624Z,19.80
2019-04-07T03:39:44.619Z,20.70
2019-04-07T03:40:44.597Z,21.30
2019-04-07T03:41:44.586Z,21.20
2019-04-07T03:42:44.577Z,24.60
2019-04-07T03:43:44.561Z,22.00
2019-04-07T03:44:44.876Z,23.90
2019-04-07T03:45:45.483Z,20.50
2019-04-07T03:46:45.507Z,22.30
2019-04-07T03:47:44.515Z,21.70
2019-04-07T03:48:44.599Z,21.80
2019-04-07T03:49:45.641Z,23.70
2019-04-07T03:50:44.544Z,25.40
2019-04-07T03:51:44.463Z,27.30
2019-04-07T03:52:44.952Z,20.20
2019-04-07T03:53:45.651Z,20.20
2019-04-07T03:54:45.126Z,16.90
2019-04-07T03:55:44.438Z,17.80
2019-04-07T03:56:44.405Z,18.00
2019-04-07T03:57:44.485Z,19.80
2019-04-07T03:58:44.381Z,16.40
2019-04-07T03:59:44.648Z,15.00
2019-04-07T04:00:44.363Z,17.30
2019-04-07T04:01:45.412Z,16.30
2019-04-07T04:02:44.497Z,15.10
2019-04-07T04:03:44.317Z,14.80
2019-04-07T04:04:44.305Z,13.60
2019-04-07T04:05:44.293Z,13.70
2019-04-07T04:06:44.289Z,14.50
2019-04-07T04:07:44.324Z,15.30
2019-04-07T04:08:44.277Z,14.40
2019-04-07T04:09:45.465Z,14.90
2019-04-07T04:10:44.907Z,14.40
2019-04-07T04:11:45.167Z,13.40
2019-04-07T04:12:44.219Z,13.90
2019-04-07T04:13:44.336Z,13.80
2019-04-07T04:14:45.155Z,15.60
2019-04-07T04:15:44.686Z,20.70
2019-04-07T04:16:44.494Z,18.70
2019-04-07T04:17:44.149Z,20.70
2019-04-07T04:18:44.725Z,21.00
2019-04-07T04:19:44.142Z,20.60
2019-04-07T04:20:44.412Z,21.70
2019-04-07T04:21:44.472Z,18.40
2019-04-07T04:22:44.366Z,20.20
2019-04-07T04:23:44.698Z,18.90
2019-04-07T04:24:44.063Z,20.60
2019-04-07T04:25:45.430Z,17.00
2019-04-07T04:26:44.192Z,16.10
2019-04-07T04:27:44.264Z,16.80
2019-04-07T04:28:44.328Z,18.00
2019-04-07T04:29:44.906Z,18.70
2019-04-07T04:30:44.190Z,18.20
2019-04-07T04:31:43.984Z,18.30
2019-04-07T04:32:43.968Z,20.60
2019-04-07T04:33:44.331Z,19.70
2019-04-07T04:34:43.941Z,19.90
2019-04-07T04:35:44.190Z,19.60
2019-04-07T04:36:44.679Z,20.80
2019-04-07T04:37:48.824Z,20.60
2019-04-07T04:38:44.119Z,20.20
2019-04-07T04:39:44.595Z,18.50
2019-04-07T04:40:44.103Z,21.50
2019-04-07T04:41:44.672Z,20.90
2019-04-07T04:42:44.362Z,22.80
2019-04-07T04:43:43.833Z,24.60
2019-04-07T04:44:44.371Z,25.00
2019-04-07T04:45:43.995Z,22.60
2019-04-07T04:46:43.798Z,22.60
2019-04-07T04:47:43.790Z,24.10
2019-04-07T04:48:43.779Z,23.40
2019-04-07T04:49:44.772Z,22.80
2019-04-07T04:50:44.064Z,23.30
2019-04-07T04:51:44.406Z,24.30
2019-04-07T04:52:45.431Z,24.00
2019-04-07T04:53:44.256Z,24.60
2019-04-07T04:54:43.720Z,24.30
2019-04-07T04:55:43.943Z,22.70
2019-04-07T04:56:43.677Z,24.90
2019-04-07T04:57:44.424Z,22.10
2019-04-07T04:58:44.357Z,25.50
2019-04-07T04:59:44.290Z,22.90
2019-04-07T05:00:44.543Z,23.20
2019-04-07T05:01:44.459Z,24.20
2019-04-07T05:02:44.429Z,24.50
2019-04-07T05:03:43.590Z,24.40
2019-04-07T05:04:43.876Z,24.00
2019-04-07T05:05:43.567Z,23.20
2019-04-07T05:06:43.663Z,24.00
2019-04-07T05:07:54.899Z,24.30
2019-04-07T05:08:44.367Z,22.70
2019-04-07T05:09:48.966Z,24.30
2019-04-07T05:10:43.979Z,22.80
2019-04-07T05:11:43.495Z,21.40
2019-04-07T05:12:43.497Z,24.70
2019-04-07T05:13:43.468Z,25.20
2019-04-07T05:14:43.457Z,24.20
2019-04-07T05:15:43.523Z,22.50
2019-04-07T05:16:43.605Z,24.00
2019-04-07T05:17:43.666Z,22.40
2019-04-07T05:18:43.676Z,24.30
2019-04-07T05:19:43.397Z,22.20
2019-04-07T05:20:44.317Z,24.60
2019-04-07T05:21:43.615Z,23.40
2019-04-07T05:22:43.423Z,22.70
2019-04-07T05:23:43.899Z,23.40
2019-04-07T05:24:43.334Z,21.50
2019-04-07T05:25:43.805Z,23.70
2019-04-07T05:26:43.310Z,23.30
2019-04-07T05:27:43.304Z,23.40
2019-04-07T05:28:43.884Z,23.50
2019-04-07T05:29:43.274Z,24.20
2019-04-07T05:30:43.547Z,25.60
2019-04-07T05:31:43.881Z,22.00
2019-04-07T05:32:43.265Z,22.10
2019-04-07T05:33:43.300Z,23.20
2019-04-07T05:34:43.219Z,23.50
2019-04-07T05:35:43.207Z,20.20
2019-04-07T05:36:43.335Z,22.00
2019-04-07T05:37:43.334Z,24.00
2019-04-07T05:38:43.164Z,21.90
2019-04-07T05:39:43.734Z,26.10
2019-04-07T05:40:43.328Z,23.60
2019-04-07T05:41:43.832Z,23.00
2019-04-07T05:42:43.351Z,24.80
2019-04-07T05:43:43.141Z,20.60
2019-04-07T05:44:43.233Z,20.40
2019-04-07T05:45:43.912Z,19.70
2019-04-07T05:46:43.476Z,22.40
2019-04-07T05:47:47.313Z,22.80
2019-04-07T05:48:43.614Z,17.40
2019-04-07T05:49:43.379Z,17.00
2019-04-07T05:50:43.031Z,15.30
2019-04-07T05:51:43.393Z,18.10
2019-04-07T05:52:43.316Z,17.40
2019-04-07T05:53:46.327Z,16.60
2019-04-07T05:54:42.974Z,17.10
2019-04-07T05:55:43.615Z,16.10
2019-04-07T05:56:42.949Z,16.40
2019-04-07T05:57:43.172Z,16.20
2019-04-07T05:58:43.848Z,14.20
2019-04-07T05:59:43.673Z,16.80
2019-04-07T06:00:45.746Z,15.30
2019-04-07T06:01:42.891Z,15.10
2019-04-07T06:02:42.989Z,15.30
2019-04-07T06:03:43.638Z,18.40
2019-04-07T06:04:42.866Z,16.10
2019-04-07T06:05:44.629Z,17.60
2019-04-07T06:06:42.831Z,17.90
2019-04-07T06:07:43.026Z,17.60
2019-04-07T06:08:42.809Z,18.70
2019-04-07T06:09:42.800Z,19.60
2019-04-07T06:10:42.787Z,18.60
2019-04-07T06:11:43.174Z,20.30
2019-04-07T06:12:46.364Z,18.60
2019-04-07T06:13:44.628Z,18.90
2019-04-07T06:14:44.463Z,21.40
2019-04-07T06:15:42.795Z,18.70
2019-04-07T06:16:43.458Z,18.40
2019-04-07T06:17:42.701Z,19.80
2019-04-07T06:18:43.313Z,19.50
2019-04-07T06:19:43.558Z,17.70
2019-04-07T06:20:45.143Z,18.50
2019-04-07T06:21:46.058Z,17.80
2019-04-07T06:22:42.644Z,16.50
2019-04-07T06:23:43.258Z,18.10
2019-04-07T06:24:42.621Z,18.40
2019-04-07T06:25:44.007Z,18.80
2019-04-07T06:26:47.650Z,21.80
2019-04-07T06:27:45.064Z,19.60
2019-04-07T06:28:42.575Z,17.10
2019-04-07T06:29:42.562Z,17.50
2019-04-07T06:30:42.850Z,17.70
2019-04-07T06:31:42.542Z,16.30
2019-04-07T06:32:43.970Z,17.20
2019-04-07T06:33:42.516Z,17.60
2019-04-07T06:34:43.556Z,16.30
2019-04-07T06:35:44.972Z,19.80
2019-04-07T06:36:43.120Z,18.80
2019-04-07T06:37:42.916Z,19.80
2019-04-07T06:38:46.481Z,17.00
2019-04-07T06:39:42.450Z,18.70
2019-04-07T06:40:42.437Z,18.80
2019-04-07T06:41:42.430Z,19.60
2019-04-07T06:42:43.999Z,20.20
2019-04-07T06:43:42.402Z,18.00
2019-04-07T06:44:42.391Z,17.10
2019-04-07T06:45:42.523Z,19.30
2019-04-07T06:46:42.449Z,18.30
2019-04-07T06:47:42.361Z,17.10
2019-04-07T06:48:42.345Z,19.60
2019-04-07T06:49:44.672Z,17.50
2019-04-07T06:50:49.445Z,18.40
2019-04-07T06:51:42.451Z,19.70
2019-04-07T06:52:42.307Z,20.70
2019-04-07T06:53:43.038Z,20.50
2019-04-07T06:54:42.336Z,18.90
2019-04-07T06:55:42.774Z,17.60
2019-04-07T06:56:42.258Z,18.70
2019-04-07T06:57:42.818Z,20.70
2019-04-07T06:58:42.911Z,19.40
2019-04-07T06:59:45.659Z,18.00
2019-04-07T07:00:42.224Z,17.40
2019-04-07T07:01:42.795Z,21.00
2019-04-07T07:02:43.777Z,19.60
2019-04-07T07:03:42.178Z,18.70
2019-04-07T07:04:44.049Z,17.40
2019-04-07T07:05:45.354Z,16.90
2019-04-07T07:06:42.270Z,13.80
2019-04-07T07:07:42.569Z,14.10
2019-04-07T07:08:45.950Z,15.80
2019-04-07T07:09:42.674Z,16.20
2019-04-07T07:10:42.958Z,15.80
2019-04-07T07:11:44.107Z,15.10
2019-04-07T07:12:42.188Z,11.60
2019-04-07T07:13:44.544Z,10.30
2019-04-07T07:14:44.931Z,12.20
2019-04-07T07:15:42.733Z,9.20
2019-04-07T07:16:44.521Z,10.80
2019-04-07T07:17:42.245Z,8.50
2019-04-07T07:18:42.026Z,10.00
2019-04-07T07:19:42.281Z,11.10
2019-04-07T07:20:42.690Z,9.10
2019-04-07T07:21:42.650Z,9.00
2019-04-07T07:22:45.592Z,8.90
2019-04-07T07:23:47.647Z,8.00
2019-04-07T07:24:42.720Z,8.50
2019-04-07T07:25:42.093Z,8.80
2019-04-07T07:26:41.948Z,8.10
2019-04-07T07:27:42.996Z,6.60
2019-04-07T07:28:43.290Z,5.90
2019-04-07T07:29:45.482Z,7.90
2019-04-07T07:30:42.693Z,8.30
2019-04-07T07:31:42.595Z,6.50
2019-04-07T07:32:41.888Z,7.00
2019-04-07T07:33:43.637Z,7.20
2019-04-07T07:34:42.463Z,8.30
2019-04-07T07:35:45.526Z,7.00
2019-04-07T07:36:41.851Z,6.10
2019-04-07T07:37:41.845Z,6.40
2019-04-07T07:38:54.439Z,5.90
2019-04-07T07:39:42.646Z,7.40
2019-04-07T07:40:42.559Z,8.30
2019-04-07T07:41:41.806Z,5.50
2019-04-07T07:42:42.090Z,8.10
2019-04-07T07:43:42.439Z,6.20
2019-04-07T07:44:41.862Z,5.20
2019-04-07T07:45:44.954Z,7.20
2019-04-07T07:46:42.170Z,7.00
2019-04-07T07:47:41.749Z,6.80
2019-04-07T07:48:42.085Z,5.40
2019-04-07T07:49:42.430Z,4.80
2019-04-07T07:50:41.912Z,6.10
2019-04-07T07:51:45.041Z,4.90
2019-04-07T07:52:41.706Z,6.40
2019-04-07T07:53:41.693Z,5.50
2019-04-07T07:54:42.151Z,4.70
2019-04-07T07:55:41.676Z,5.50
2019-04-07T07:56:47.399Z,4.70
2019-04-07T07:57:41.659Z,6.50
2019-04-07T07:58:41.644Z,4.90
2019-04-07T07:59:42.101Z,4.40
2019-04-07T08:00:43.345Z,5.70
2019-04-07T08:01:44.255Z,4.80
2019-04-07T08:02:41.607Z,5.10
2019-04-07T08:03:41.599Z,5.50
2019-04-07T08:04:42.314Z,4.90
2019-04-07T08:05:41.583Z,4.70
2019-04-07T08:06:41.572Z,4.50
2019-04-07T08:07:46.828Z,5.20
2019-04-07T08:08:45.175Z,5.30
2019-04-07T08:09:42.169Z,3.90
2019-04-07T08:10:41.535Z,3.60
2019-04-07T08:11:41.545Z,3.80
2019-04-07T08:12:42.166Z,3.70
2019-04-07T08:13:44.696Z,3.10
2019-04-07T08:14:41.503Z,3.40
2019-04-07T08:15:41.645Z,3.30
2019-04-07T08:16:41.479Z,4.60
2019-04-07T08:17:42.064Z,4.10
2019-04-07T08:18:44.633Z,4.30
2019-04-07T08:19:43.928Z,3.70
2019-04-07T08:20:44.987Z,2.60
2019-04-07T08:21:44.305Z,2.30
2019-04-07T08:22:43.585Z,3.20
2019-04-07T08:23:44.575Z,5.10
2019-04-07T08:24:41.579Z,3.30
2019-04-07T08:25:41.397Z,4.50
2019-04-07T08:26:41.391Z,3.60
2019-04-07T08:27:41.971Z,5.50
2019-04-07T08:28:41.374Z,3.20
2019-04-07T08:29:41.364Z,3.40
2019-04-07T08:30:44.181Z,3.50
2019-04-07T08:31:41.343Z,2.70
2019-04-07T08:32:42.083Z,4.40
2019-04-07T08:33:42.067Z,5.60
2019-04-07T08:34:41.550Z,4.20
2019-04-07T08:35:41.316Z,3.50
2019-04-07T08:36:43.523Z,3.30
2019-04-07T08:37:41.591Z,4.00
2019-04-07T08:38:41.286Z,3.10
2019-04-07T08:39:42.060Z,4.50
2019-04-07T08:40:41.268Z,4.80
2019-04-07T08:41:42.514Z,3.80
2019-04-07T08:42:41.838Z,3.70
2019-04-07T08:43:41.963Z,4.20
2019-04-07T08:44:41.933Z,3.30
2019-04-07T08:45:41.419Z,3.30
2019-04-07T08:46:43.127Z,3.40
2019-04-07T08:47:41.207Z,4.50
2019-04-07T08:48:41.200Z,4.40
2019-04-07T08:49:41.624Z,3.00
2019-04-07T08:50:42.037Z,3.60
2019-04-07T08:51:41.700Z,3.80
2019-04-07T08:52:43.016Z,3.00
2019-04-07T08:53:44.009Z,2.80
2019-04-07T08:54:41.147Z,2.70
2019-04-07T08:55:41.709Z,4.30
2019-04-07T08:56:41.134Z,4.20
2019-04-07T08:57:41.325Z,3.50
2019-04-07T08:58:41.384Z,6.40
2019-04-07T08:59:43.028Z,4.20
2019-04-07T09:00:41.664Z,3.60
2019-04-07T09:01:41.628Z,4.70
2019-04-07T09:02:41.604Z,2.80
2019-04-07T09:03:44.481Z,4.20
2019-04-07T09:04:41.273Z,3.40
2019-04-07T09:05:41.083Z,4.50
2019-04-07T09:06:41.051Z,3.30
2019-04-07T09:07:41.198Z,4.30
2019-04-07T09:08:41.073Z,3.60
2019-04-07T09:09:46.592Z,4.10
2019-04-07T09:10:41.019Z,3.40
2019-04-07T09:11:41.612Z,4.60
2019-04-07T09:12:41.822Z,3.90
2019-04-07T09:13:41.442Z,4.70
2019-04-07T09:14:41.897Z,3.20
2019-04-07T09:15:43.612Z,3.00
2019-04-07T09:16:41.619Z,4.30
2019-04-07T09:17:45.995Z,6.00
2019-04-07T09:18:51.648Z,4.10
2019-04-07T09:19:41.643Z,3.60
2019-04-07T09:20:43.592Z,4.00
2019-04-07T09:21:42.576Z,6.20
2019-04-07T09:22:40.914Z,3.70
2019-04-07T09:23:40.907Z,4.10
2019-04-07T09:24:41.576Z,4.50
2019-04-07T09:25:41.995Z,3.80
2019-04-07T09:26:42.826Z,4.70
2019-04-07T09:27:41.096Z,5.70
2019-04-07T09:28:40.866Z,4.50
2019-04-07T09:29:41.081Z,3.70
2019-04-07T09:30:40.959Z,5.00
2019-04-07T09:31:41.076Z,7.00
2019-04-07T09:32:41.600Z,3.70
2019-04-07T09:33:40.826Z,3.80
2019-04-07T09:34:41.425Z,5.00
2019-04-07T09:35:41.305Z,4.30
2019-04-07T09:36:40.815Z,5.20
2019-04-07T09:37:41.572Z,4.50
2019-04-07T09:38:40.907Z,4.70
2019-04-07T09:39:56.270Z,4.20
2019-04-07T09:40:40.773Z,6.00
2019-04-07T09:41:42.641Z,3.50
2019-04-07T09:42:41.203Z,5.20
2019-04-07T09:43:40.747Z,4.20
2019-04-07T09:44:40.739Z,3.90
2019-04-07T09:45:41.224Z,4.60
2019-04-07T09:46:44.780Z,3.60
2019-04-07T09:47:41.391Z,5.30
2019-04-07T09:48:41.425Z,5.30
2019-04-07T09:49:41.345Z,4.60
2019-04-07T09:50:40.838Z,4.40
2019-04-07T09:51:41.532Z,4.60
2019-04-07T09:52:43.572Z,3.70
2019-04-07T09:53:41.484Z,3.60
2019-04-07T09:54:40.946Z,3.70
2019-04-07T09:55:41.127Z,4.00
2019-04-07T09:56:40.746Z,3.60
2019-04-07T09:57:41.191Z,3.70
2019-04-07T09:58:42.758Z,3.90
2019-04-07T09:59:40.623Z,5.80
2019-04-07T10:00:41.027Z,4.70
2019-04-07T10:01:41.130Z,4.10
2019-04-07T10:02:40.601Z,4.10
2019-04-07T10:03:40.602Z,7.40
2019-04-07T10:04:42.428Z,4.40
2019-04-07T10:05:40.966Z,5.50
2019-04-07T10:06:40.567Z,5.00
2019-04-07T10:07:42.814Z,4.00
2019-04-07T10:08:40.623Z,4.10
2019-04-07T10:09:41.139Z,5.40
2019-04-07T10:10:40.553Z,4.00
2019-04-07T10:11:40.526Z,4.40
2019-04-07T10:12:40.778Z,6.80
2019-04-07T10:13:40.958Z,6.70
2019-04-07T10:14:40.532Z,4.80
2019-04-07T10:15:40.492Z,5.60
2019-04-07T10:16:40.700Z,4.00
2019-04-07T10:17:40.478Z,3.60
2019-04-07T10:18:40.472Z,6.00
2019-04-07T10:19:41.254Z,5.20
2019-04-07T10:20:40.793Z,4.30
2019-04-07T10:21:40.451Z,4.30
2019-04-07T10:22:40.439Z,4.90
2019-04-07T10:23:40.456Z,5.80
2019-04-07T10:24:40.492Z,6.30
2019-04-07T10:25:40.419Z,5.00
2019-04-07T10:26:40.408Z,6.30
2019-04-07T10:27:40.400Z,4.20
2019-04-07T10:28:41.884Z,3.80
2019-04-07T10:29:40.387Z,3.60
2019-04-07T10:30:40.380Z,4.70
2019-04-07T10:31:40.923Z,4.50
2019-04-07T10:32:40.654Z,4.90
2019-04-07T10:33:40.590Z,6.10
2019-04-07T10:34:40.783Z,3.80
2019-04-07T10:35:40.930Z,5.10
2019-04-07T10:36:40.747Z,4.50
2019-04-07T10:37:40.323Z,5.50
2019-04-07T10:38:40.319Z,7.10
2019-04-07T10:39:40.308Z,4.50
2019-04-07T10:40:41.150Z,4.50
2019-04-07T10:41:40.291Z,4.90
2019-04-07T10:42:41.193Z,4.80
2019-04-07T10:43:40.507Z,3.20
2019-04-07T10:44:40.269Z,3.90
2019-04-07T10:45:40.549Z,4.00
2019-04-07T10:46:40.269Z,4.90
2019-04-07T10:47:40.245Z,5.00
2019-04-07T10:48:40.468Z,3.90
2019-04-07T10:49:40.635Z,3.20
2019-04-07T10:50:40.529Z,3.80
2019-04-07T10:51:40.810Z,3.80
2019-04-07T10:52:40.201Z,3.30
2019-04-07T10:53:40.551Z,5.40
2019-04-07T10:54:40.474Z,4.80
2019-04-07T10:55:40.636Z,4.90
2019-04-07T10:56:40.173Z,4.00
2019-04-07T10:57:40.161Z,3.10
2019-04-07T10:58:40.320Z,2.90
2019-04-07T10:59:40.402Z,4.90
2019-04-07T11:00:44.724Z,3.50
2019-04-07T11:01:40.133Z,2.80
2019-04-07T11:02:40.439Z,4.80
2019-04-07T11:03:40.532Z,5.00
2019-04-07T11:04:40.857Z,3.20
2019-04-07T11:05:41.070Z,4.10
2019-04-07T11:06:40.623Z,3.90
2019-04-07T11:07:40.421Z,4.30
2019-04-07T11:08:40.076Z,3.90
2019-04-07T11:09:40.655Z,6.30
2019-04-07T11:10:40.126Z,4.80
2019-04-07T11:11:40.046Z,4.20
2019-04-07T11:12:40.037Z,4.60
2019-04-07T11:13:40.358Z,6.10
2019-04-07T11:14:40.027Z,3.90
2019-04-07T11:15:40.013Z,3.80
2019-04-07T11:16:40.010Z,4.10
2019-04-07T11:17:40.772Z,5.10
2019-04-07T11:18:40.309Z,5.00
2019-04-07T11:19:39.978Z,3.70
2019-04-07T11:20:39.970Z,3.50
2019-04-07T11:21:40.454Z,4.70
2019-04-07T11:22:40.191Z,4.10
2019-04-07T11:23:40.381Z,4.00
2019-04-07T11:24:39.936Z,4.70
2019-04-07T11:25:39.948Z,3.30
2019-04-07T11:26:40.360Z,3.20
2019-04-07T11:27:39.911Z,3.40
2019-04-07T11:28:40.083Z,4.60
2019-04-07T11:29:39.904Z,3.20
2019-04-07T11:30:39.928Z,3.80
2019-04-07T11:31:40.553Z,4.30
2019-04-07T11:32:40.274Z,3.60
2019-04-07T11:33:39.865Z,2.90
2019-04-07T11:34:40.186Z,3.40
2019-04-07T11:35:40.166Z,3.10
2019-04-07T11:36:40.674Z,5.00
2019-04-07T11:37:39.830Z,3.80
2019-04-07T11:38:40.474Z,5.30
2019-04-07T11:39:39.814Z,3.70
2019-04-07T11:40:45.936Z,4.10
2019-04-07T11:41:40.269Z,3.30
2019-04-07T11:42:40.436Z,5.20
2019-04-07T11:43:40.788Z,2.50
2019-04-07T11:44:40.107Z,3.60
2019-04-07T11:45:39.761Z,3.80
2019-04-07T11:46:40.107Z,4.40
2019-04-07T11:47:40.520Z,3.40
2019-04-07T11:48:40.435Z,4.10
2019-04-07T11:49:42.580Z,3.60
2019-04-07T11:50:39.725Z,4.90
2019-04-07T11:51:40.618Z,3.60
2019-04-07T11:52:39.843Z,2.60
2019-04-07T11:53:39.703Z,3.40
2019-04-07T11:54:39.690Z,2.20
2019-04-07T11:55:39.682Z,3.20
2019-04-07T11:56:40.172Z,3.50
2019-04-07T11:57:43.331Z,4.30
2019-04-07T11:58:39.832Z,2.80
2019-04-07T11:59:39.652Z,2.90
2019-04-07T12:00:41.541Z,3.30
2019-04-07T12:01:39.636Z,2.10
2019-04-07T12:02:41.529Z,2.70
2019-04-07T12:03:39.859Z,3.80
2019-04-07T12:04:40.399Z,2.90
2019-04-07T12:05:39.854Z,3.80
2019-04-07T12:06:39.733Z,3.20
2019-04-07T12:07:40.242Z,3.50
2019-04-07T12:08:40.420Z,3.70
2019-04-07T12:09:39.664Z,2.80
2019-04-07T12:10:39.876Z,3.30
2019-04-07T12:11:39.759Z,4.20
2019-04-07T12:12:39.681Z,3.60
2019-04-07T12:13:42.857Z,3.20
2019-04-07T12:14:39.538Z,2.90
2019-04-07T12:15:40.046Z,3.50
2019-04-07T12:16:40.208Z,4.80
2019-04-07T12:17:42.043Z,4.30
2019-04-07T12:18:39.685Z,4.90
2019-04-07T12:19:39.812Z,2.80
2019-04-07T12:20:39.494Z,4.00
2019-04-07T12:21:39.489Z,3.70
2019-04-07T12:22:44.057Z,3.80
2019-04-07T12:23:40.237Z,2.90
2019-04-07T12:24:39.466Z,2.30
2019-04-07T12:25:40.228Z,3.20
2019-04-07T12:26:42.090Z,3.30
2019-04-07T12:27:43.025Z,3.40
2019-04-07T12:28:40.063Z,3.70
2019-04-07T12:29:39.873Z,3.30
2019-04-07T12:30:39.421Z,2.70
2019-04-07T12:31:40.369Z,4.50
2019-04-07T12:32:40.219Z,3.00
2019-04-07T12:33:40.347Z,3.90
2019-04-07T12:34:41.767Z,3.40
2019-04-07T12:35:39.400Z,3.20
2019-04-07T12:36:39.820Z,2.90
2019-04-07T12:37:42.400Z,2.60
2019-04-07T12:38:43.254Z,2.80
2019-04-07T12:39:39.358Z,2.90
2019-04-07T12:40:39.350Z,2.70
2019-04-07T12:41:40.106Z,3.90
2019-04-07T12:42:40.227Z,3.40
2019-04-07T12:43:40.343Z,3.70
2019-04-07T12:44:39.901Z,2.30
2019-04-07T12:45:39.310Z,2.80
2019-04-07T12:46:39.307Z,3.60
2019-04-07T12:47:39.800Z,3.40
2019-04-07T12:48:40.345Z,3.90
2019-04-07T12:49:44.465Z,2.90
2019-04-07T12:50:39.270Z,2.80
2019-04-07T12:51:39.731Z,2.80
2019-04-07T12:52:39.258Z,2.50
2019-04-07T12:53:40.006Z,3.80
2019-04-07T12:54:41.383Z,2.90
2019-04-07T12:55:39.235Z,3.70
2019-04-07T12:56:39.228Z,4.20
2019-04-07T12:57:39.824Z,4.50
2019-04-07T12:58:42.394Z,3.80
2019-04-07T12:59:39.235Z,3.60
2019-04-07T13:00:53.037Z,4.50
2019-04-07T13:01:41.333Z,2.90
2019-04-07T13:02:39.267Z,3.90
2019-04-07T13:03:39.173Z,3.00